»·PEaware :: N49LP KPRC-KEED

N49LP :: KPRC-KEED

FLIGHT INFORMATION

Flight Status: Arrived
Operator: Privately registered:
United States
More flights under this callsign
Pilot: Les P. (123)
Aircraft: BEECH AIRCRAFT BONANZA
(BE35)
More flights by this aircraft type
Origin: KPRC Love
United States
Destination: KEED Needles
United States
More flights between these airports :: More routes between these airports
Route: DRK V12 EED
File this flight plan on PilotEdge
Remarks:
Altitude:
(Current/Filed)
10,500ft
Speed:
(Current/Filed)
163kts
Departed: 28-Jun-19 12:49 PM
Arrived: 28-Jun-19 01:37 PM
Distance/Time
Traveled:
109nm/0:48
Distance/Time
To Go:
Arrived

Flight Plot

Page will automatically refresh every two minutes.

Flight plan parsing failed; only flown route is shown


Map Options




Map Legend


Flown Route
Filed Route
Departure Airport
Arrival Airport
Navaid (VOR, NDB)
Fix

Horizontal Profiles

Position Reports

Time Latitude Longitude Heading Altitude Ground
Speed
28-Jun-19 12:15 34.652891 -112.423265 132 5048ft 0kts
28-Jun-19 12:17 34.652891 -112.423265 132 5048ft 0kts
28-Jun-19 12:18 34.652891 -112.423265 132 5048ft 0kts
28-Jun-19 12:18 34.652891 -112.423265 132 5048ft 0kts
28-Jun-19 12:20 34.652891 -112.423265 132 5048ft 0kts
28-Jun-19 12:21 34.652891 -112.423265 132 5048ft 0kts
28-Jun-19 12:21 34.652891 -112.423265 132 5048ft 0kts
28-Jun-19 12:22 34.652891 -112.423265 132 5048ft 0kts
28-Jun-19 12:23 34.652891 -112.423265 132 5048ft 0kts
28-Jun-19 12:24 34.652891 -112.423265 132 5048ft 0kts
28-Jun-19 12:25 34.652891 -112.423265 132 5048ft 0kts
28-Jun-19 12:26 34.652891 -112.423265 132 5048ft 0kts
28-Jun-19 12:27 34.652891 -112.423265 132 5048ft 0kts
28-Jun-19 12:28 34.652891 -112.423265 132 5048ft 0kts
28-Jun-19 12:29 34.652891 -112.423265 132 5048ft 0kts
28-Jun-19 12:30 34.652890 -112.423264 132 5048ft 0kts
28-Jun-19 12:31 34.652888 -112.423261 132 5048ft 0kts
28-Jun-19 12:32 34.652887 -112.423259 132 5048ft 0kts
28-Jun-19 12:33 34.652885 -112.423257 132 5048ft 0kts
28-Jun-19 12:34 34.652883 -112.423255 132 5048ft 0kts
28-Jun-19 12:35 34.652882 -112.423252 132 5048ft 0kts
28-Jun-19 12:36 34.652880 -112.423250 132 5048ft 0kts
28-Jun-19 12:37 34.652878 -112.423248 132 5048ft 0kts
28-Jun-19 12:38 34.652755 -112.423314 261 5048ft 6kts
28-Jun-19 12:39 34.655004 -112.421138 44 5048ft 11kts
28-Jun-19 12:40 34.657063 -112.418179 41 5048ft 17kts
28-Jun-19 12:41 34.660780 -112.414180 40 5048ft 16kts
28-Jun-19 12:42 34.662652 -112.412154 128 5048ft 0kts
28-Jun-19 12:43 34.662649 -112.412150 128 5048ft 0kts
28-Jun-19 12:44 34.662647 -112.412147 128 5048ft 0kts
28-Jun-19 12:45 34.662646 -112.412145 128 5048ft 0kts
28-Jun-19 12:46 34.662644 -112.412143 128 5048ft 0kts
28-Jun-19 12:47 34.662561 -112.412010 126 5048ft 8kts
28-Jun-19 12:48 34.652507 -112.421691 221 5096ft 95kts
28-Jun-19 12:49 34.635667 -112.447028 270 5868ft 98kts
28-Jun-19 12:50 34.660896 -112.460102 0 6412ft 111kts
28-Jun-19 12:51 34.690284 -112.470470 302 7041ft 123kts
28-Jun-19 12:52 34.704506 -112.507048 262 7762ft 120kts
28-Jun-19 12:53 34.702444 -112.546902 276 8512ft 122kts
28-Jun-19 12:54 34.706699 -112.587443 265 9322ft 120kts
28-Jun-19 12:55 34.708300 -112.627532 263 10115ft 117kts
28-Jun-19 12:56 34.709804 -112.669300 264 10490ft 139kts
28-Jun-19 12:57 34.711855 -112.718948 265 10497ft 151kts
28-Jun-19 12:58 34.713836 -112.770840 265 10494ft 155kts
28-Jun-19 12:59 34.715827 -112.823353 265 10493ft 156kts
28-Jun-19 13:00 34.717752 -112.875963 265 10484ft 156kts
28-Jun-19 13:01 34.719739 -112.928325 265 10488ft 153kts
28-Jun-19 13:02 34.721528 -112.979952 265 10477ft 152kts
28-Jun-19 13:03 34.723377 -113.031592 264 10474ft 155kts
28-Jun-19 13:04 34.725334 -113.084210 264 10463ft 156kts
28-Jun-19 13:05 34.727126 -113.134168 263 10755ft 143kts
28-Jun-19 13:06 34.728736 -113.184284 264 10767ft 152kts
28-Jun-19 13:07 34.730536 -113.236054 264 10752ft 154kts
28-Jun-19 13:08 34.732270 -113.287834 264 10736ft 152kts
28-Jun-19 13:09 34.734030 -113.339295 264 10725ft 153kts
28-Jun-19 13:10 34.735603 -113.391397 264 10708ft 155kts
28-Jun-19 13:11 34.737364 -113.443824 264 10698ft 155kts
28-Jun-19 13:12 34.739000 -113.496020 264 10692ft 153kts
28-Jun-19 13:13 34.740613 -113.547881 264 10681ft 154kts
28-Jun-19 13:14 34.742225 -113.600035 264 10668ft 153kts
28-Jun-19 13:15 34.743850 -113.651690 263 10655ft 151kts
28-Jun-19 13:16 34.745380 -113.702946 263 10651ft 153kts
28-Jun-19 13:17 34.746902 -113.754889 263 10636ft 154kts
28-Jun-19 13:18 34.748491 -113.807112 263 10628ft 155kts
28-Jun-19 13:19 34.749914 -113.859217 263 10620ft 152kts
28-Jun-19 13:20 34.751455 -113.910518 263 10606ft 151kts
28-Jun-19 13:21 34.752869 -113.961740 263 10575ft 152kts
28-Jun-19 13:22 34.754272 -114.013450 263 10557ft 155kts
28-Jun-19 13:23 34.755741 -114.068661 265 9933ft 173kts
28-Jun-19 13:24 34.757414 -114.129089 266 8836ft 182kts
28-Jun-19 13:25 34.759054 -114.190307 266 7727ft 179kts
28-Jun-19 13:26 34.760598 -114.250614 267 6583ft 177kts
28-Jun-19 13:27 34.762087 -114.310097 267 5479ft 174kts
28-Jun-19 13:28 34.763404 -114.367743 268 4377ft 168kts
28-Jun-19 13:29 34.764768 -114.424106 268 3294ft 165kts
28-Jun-19 13:30 34.766159 -114.479155 266 2233ft 163kts
28-Jun-19 13:31 34.770462 -114.530251 275 1807ft 134kts
28-Jun-19 13:32 34.782356 -114.570043 349 2042ft 145kts
28-Jun-19 13:33 34.824422 -114.570376 310 1898ft 149kts
28-Jun-19 13:34 34.808987 -114.600051 193 1505ft 115kts
28-Jun-19 13:35 34.781708 -114.611391 208 1079ft 87kts
28-Jun-19 13:36 34.767506 -114.620961 208 923ft 30kts
28-Jun-19 13:37 34.764195 -114.620735 90 923ft 2kts
28-Jun-19 13:38 34.764233 -114.620591 72 923ft 0kts
28-Jun-19 13:39 34.764233 -114.620591 72 923ft 0kts
28-Jun-19 13:40 34.764233 -114.620591 72 923ft 0kts

Navigation Log

Ident Type
Flight plan parsing failed, navigation log unavailable